الصفحة الرئيسية
METAR-TAF:

METAR-TAF

مطار :

Nogales, أريزونا, الولايات المتحدة

دائرة عرض: 31-25-15N, خط طول: 110-50-45W, ارتفاع: 1198 متر

مراقبة الطقس الحالي

تاريخ ووقت الإصدار 19 دقيقة قبل الساعة 12:54UTC
ريح 4 عقدة من الشمال/الشمال الشرقي
درجة الحرارة 1°درجة مئوية
الرطوبة 80%
ضغط 1022 hPa
الرؤية: 16.1 كم
سماء صافية

METAR: KOLS 131254Z AUTO 02004KT 10SM CLR 01/M02 A3019 RMK AO2 SLP204 T00111017

زمن: 06:13 (13:13 UTC)

توقعات

تاريخ ووقت الإصدار 1ساعة و 39 دقيقة قبل الساعة 11:34UTC
التوقعات صالحة من13 الساعة 12 UTC إلى 14 الساعة 12 UTC
ريح 4 عقدةمن اتجاهات متغيرة
الرؤية: 10 كم
غيوم قليلة على ارتفاع 25000 قدم
من 13 الساعة 1700 UTC
ريح 7 عقدة من الشمال
الرؤية: 10 كم
غيوم متفرقة على ارتفاع 25000 قدم
من 14 الساعة 0100 UTC
ريح 4 عقدةمن اتجاهات متغيرة
الرؤية: 10 كم
غيوم متفرقة على ارتفاع 25000 قدم

TAF: KOLS 131134Z 1312/1412 VRB04KT P6SM FEW250 FM131700 35007KT P6SM SCT250 FM140100 VRB04KT P6SM SCT250

أرصاد الطقس والتوقعات من أكثر من 4000 مطار (تقارير الطقس للمطار METAR والتنبؤ بالطقس بالمطارTAF).

المحطات المتاحة هي النقط الصفراء والحمراء على الخريطة.

حرك المؤشر فوق النقطة لمعرفة اسم المحطة.

ثم انقر لمعرفة أرصاد وتوقعات الطقس.

لتغيير الخارطة: اضغط على الأزرار الخضراء مع رمز الصليب الأسود للتكبير. على الزر الأخضر مع شرطة للتصغير، أو على الأسهم الخضراء للخرائط المجاورة.


METAR-TAF: